sensor_id;sensor_type;location;lat;lon;timestamp;P1;durP1;ratioP1;P2;durP2;ratioP2
78338;SDS011;67614;47.406;18.784;2023-02-15T00:00:13;57.10;;;50.00;;
78338;SDS011;67614;47.406;18.784;2023-02-15T00:00:44;54.10;;;48.33;;
78338;SDS011;67614;47.406;18.784;2023-02-15T00:01:14;55.17;;;49.50;;
78338;SDS011;67614;47.406;18.784;2023-02-15T00:01:45;55.23;;;49.17;;
78338;SDS011;67614;47.406;18.784;2023-02-15T00:02:16;55.00;;;49.10;;
78338;SDS011;67614;47.406;18.784;2023-02-15T00:02:49;53.33;;;47.60;;
78338;SDS011;67614;47.406;18.784;2023-02-15T00:03:20;55.83;;;49.10;;
78338;SDS011;67614;47.406;18.784;2023-02-15T00:03:51;55.13;;;48.27;;
78338;SDS011;67614;47.406;18.784;2023-02-15T00:04:22;53.80;;;47.80;;
78338;SDS011;67614;47.406;18.784;2023-02-15T00:04:54;53.60;;;47.60;;
78338;SDS011;67614;47.406;18.784;2023-02-15T00:05:26;52.67;;;47.13;;
78338;SDS011;67614;47.406;18.784;2023-02-15T00:05:56;53.33;;;47.80;;
78338;SDS011;67614;47.406;18.784;2023-02-15T00:06:27;54.67;;;48.43;;
78338;SDS011;67614;47.406;18.784;2023-02-15T00:06:58;54.90;;;49.00;;
78338;SDS011;67614;47.406;18.784;2023-02-15T00:07:28;53.00;;;47.60;;
78338;SDS011;67614;47.406;18.784;2023-02-15T00:07:59;54.07;;;47.83;;
78338;SDS011;67614;47.406;18.784;2023-02-15T00:08:29;54.47;;;48.20;;
78338;SDS011;67614;47.406;18.784;2023-02-15T00:09:00;54.47;;;48.50;;
78338;SDS011;67614;47.406;18.784;2023-02-15T00:09:32;52.97;;;47.30;;
78338;SDS011;67614;47.406;18.784;2023-02-15T00:10:03;52.53;;;46.80;;
78338;SDS011;67614;47.406;18.784;2023-02-15T00:10:34;51.30;;;46.63;;
78338;SDS011;67614;47.406;18.784;2023-02-15T00:11:09;53.67;;;47.53;;
78338;SDS011;67614;47.406;18.784;2023-02-15T00:11:41;52.87;;;46.30;;
78338;SDS011;67614;47.406;18.784;2023-02-15T00:12:14;49.83;;;44.90;;
78338;SDS011;67614;47.406;18.784;2023-02-15T00:12:45;51.33;;;46.43;;
78338;SDS011;67614;47.406;18.784;2023-02-15T00:13:15;52.03;;;46.03;;
78338;SDS011;67614;47.406;18.784;2023-02-15T00:13:46;52.40;;;46.47;;
78338;SDS011;67614;47.406;18.784;2023-02-15T00:14:20;53.63;;;47.07;;
78338;SDS011;67614;47.406;18.784;2023-02-15T00:14:52;53.83;;;47.00;;
78338;SDS011;67614;47.406;18.784;2023-02-15T00:15:22;52.27;;;46.17;;
78338;SDS011;67614;47.406;18.784;2023-02-15T00:15:53;52.80;;;46.40;;
78338;SDS011;67614;47.406;18.784;2023-02-15T00:16:23;55.20;;;48.43;;
78338;SDS011;67614;47.406;18.784;2023-02-15T00:16:54;53.00;;;46.87;;
78338;SDS011;67614;47.406;18.784;2023-02-15T00:17:28;52.43;;;46.63;;
78338;SDS011;67614;47.406;18.784;2023-02-15T00:17:58;51.10;;;45.63;;
78338;SDS011;67614;47.406;18.784;2023-02-15T00:18:29;51.90;;;46.03;;
78338;SDS011;67614;47.406;18.784;2023-02-15T00:19:00;51.80;;;45.83;;
78338;SDS011;67614;47.406;18.784;2023-02-15T00:19:33;51.33;;;45.57;;
78338;SDS011;67614;47.406;18.784;2023-02-15T00:20:04;50.77;;;45.10;;
78338;SDS011;67614;47.406;18.784;2023-02-15T00:20:35;51.00;;;45.33;;
78338;SDS011;67614;47.406;18.784;2023-02-15T00:21:07;49.93;;;44.37;;
78338;SDS011;67614;47.406;18.784;2023-02-15T00:21:39;50.80;;;45.17;;
78338;SDS011;67614;47.406;18.784;2023-02-15T00:22:10;51.60;;;45.43;;
78338;SDS011;67614;47.406;18.784;2023-02-15T00:22:41;50.87;;;45.03;;
78338;SDS011;67614;47.406;18.784;2023-02-15T00:23:11;50.57;;;44.83;;
78338;SDS011;67614;47.406;18.784;2023-02-15T00:23:41;53.60;;;47.37;;
78338;SDS011;67614;47.406;18.784;2023-02-15T00:24:13;52.63;;;46.40;;
78338;SDS011;67614;47.406;18.784;2023-02-15T00:24:45;53.00;;;46.70;;
78338;SDS011;67614;47.406;18.784;2023-02-15T00:25:16;52.10;;;46.60;;
78338;SDS011;67614;47.406;18.784;2023-02-15T00:25:46;49.80;;;45.17;;
78338;SDS011;67614;47.406;18.784;2023-02-15T00:26:16;50.43;;;44.80;;
78338;SDS011;67614;47.406;18.784;2023-02-15T00:26:47;48.27;;;43.20;;
78338;SDS011;67614;47.406;18.784;2023-02-15T00:27:18;48.67;;;43.47;;
78338;SDS011;67614;47.406;18.784;2023-02-15T00:27:48;49.47;;;44.03;;
78338;SDS011;67614;47.406;18.784;2023-02-15T00:28:19;49.80;;;44.47;;
78338;SDS011;67614;47.406;18.784;2023-02-15T00:28:49;49.33;;;44.53;;
78338;SDS011;67614;47.406;18.784;2023-02-15T00:29:20;47.37;;;43.00;;
78338;SDS011;67614;47.406;18.784;2023-02-15T00:29:51;50.67;;;45.13;;
78338;SDS011;67614;47.406;18.784;2023-02-15T00:30:21;50.17;;;44.37;;
78338;SDS011;67614;47.406;18.784;2023-02-15T00:30:52;51.20;;;45.03;;
78338;SDS011;67614;47.406;18.784;2023-02-15T00:31:25;52.80;;;45.77;;
78338;SDS011;67614;47.406;18.784;2023-02-15T00:31:57;51.27;;;45.37;;
78338;SDS011;67614;47.406;18.784;2023-02-15T00:32:27;48.03;;;43.53;;
78338;SDS011;67614;47.406;18.784;2023-02-15T00:32:58;49.60;;;44.53;;
78338;SDS011;67614;47.406;18.784;2023-02-15T00:33:29;48.30;;;43.10;;
78338;SDS011;67614;47.406;18.784;2023-02-15T00:34:06;48.10;;;42.37;;
78338;SDS011;67614;47.406;18.784;2023-02-15T00:34:39;50.67;;;44.50;;
78338;SDS011;67614;47.406;18.784;2023-02-15T00:35:10;50.93;;;44.60;;
78338;SDS011;67614;47.406;18.784;2023-02-15T00:35:40;50.03;;;44.40;;
78338;SDS011;67614;47.406;18.784;2023-02-15T00:36:11;50.53;;;45.17;;
78338;SDS011;67614;47.406;18.784;2023-02-15T00:36:42;50.37;;;45.07;;
78338;SDS011;67614;47.406;18.784;2023-02-15T00:37:13;51.67;;;45.70;;
78338;SDS011;67614;47.406;18.784;2023-02-15T00:37:44;51.87;;;45.43;;
78338;SDS011;67614;47.406;18.784;2023-02-15T00:38:14;50.40;;;44.90;;
78338;SDS011;67614;47.406;18.784;2023-02-15T00:38:44;45.63;;;40.80;;
78338;SDS011;67614;47.406;18.784;2023-02-15T00:39:15;47.13;;;41.77;;
78338;SDS011;67614;47.406;18.784;2023-02-15T00:39:47;48.30;;;43.00;;
78338;SDS011;67614;47.406;18.784;2023-02-15T00:40:17;48.23;;;43.07;;
78338;SDS011;67614;47.406;18.784;2023-02-15T00:40:54;47.87;;;42.90;;
78338;SDS011;67614;47.406;18.784;2023-02-15T00:41:25;48.63;;;43.67;;
78338;SDS011;67614;47.406;18.784;2023-02-15T00:41:55;48.23;;;42.80;;
78338;SDS011;67614;47.406;18.784;2023-02-15T00:42:26;45.77;;;41.07;;
78338;SDS011;67614;47.406;18.784;2023-02-15T00:42:56;46.70;;;41.97;;
78338;SDS011;67614;47.406;18.784;2023-02-15T00:43:29;47.70;;;42.53;;
78338;SDS011;67614;47.406;18.784;2023-02-15T00:44:01;48.67;;;43.10;;
78338;SDS011;67614;47.406;18.784;2023-02-15T00:44:31;47.67;;;42.20;;
78338;SDS011;67614;47.406;18.784;2023-02-15T00:45:02;49.57;;;43.53;;
78338;SDS011;67614;47.406;18.784;2023-02-15T00:45:32;49.17;;;42.93;;
78338;SDS011;67614;47.406;18.784;2023-02-15T00:46:03;49.90;;;43.83;;
78338;SDS011;67614;47.406;18.784;2023-02-15T00:46:34;48.90;;;42.93;;
78338;SDS011;67614;47.406;18.784;2023-02-15T00:47:05;50.87;;;44.63;;
78338;SDS011;67614;47.406;18.784;2023-02-15T00:47:36;48.40;;;42.87;;
78338;SDS011;67614;47.406;18.784;2023-02-15T00:48:06;48.20;;;43.17;;
78338;SDS011;67614;47.406;18.784;2023-02-15T00:48:37;46.40;;;41.80;;
78338;SDS011;67614;47.406;18.784;2023-02-15T00:49:07;46.37;;;41.40;;
78338;SDS011;67614;47.406;18.784;2023-02-15T00:49:38;49.27;;;43.53;;
78338;SDS011;67614;47.406;18.784;2023-02-15T00:50:08;48.17;;;42.90;;
78338;SDS011;67614;47.406;18.784;2023-02-15T00:50:39;49.57;;;43.57;;
78338;SDS011;67614;47.406;18.784;2023-02-15T00:51:09;48.40;;;42.63;;
78338;SDS011;67614;47.406;18.784;2023-02-15T00:51:40;48.13;;;42.77;;
78338;SDS011;67614;47.406;18.784;2023-02-15T00:52:10;48.80;;;43.60;;
78338;SDS011;67614;47.406;18.784;2023-02-15T00:52:41;48.80;;;43.83;;
78338;SDS011;67614;47.406;18.784;2023-02-15T00:53:11;50.37;;;44.87;;
78338;SDS011;67614;47.406;18.784;2023-02-15T00:53:42;49.40;;;44.20;;
78338;SDS011;67614;47.406;18.784;2023-02-15T00:54:14;49.97;;;44.23;;
78338;SDS011;67614;47.406;18.784;2023-02-15T00:54:44;49.30;;;43.47;;
78338;SDS011;67614;47.406;18.784;2023-02-15T00:55:15;50.50;;;44.50;;
78338;SDS011;67614;47.406;18.784;2023-02-15T00:55:45;49.53;;;43.87;;
78338;SDS011;67614;47.406;18.784;2023-02-15T00:56:16;50.73;;;44.57;;
78338;SDS011;67614;47.406;18.784;2023-02-15T00:56:46;49.77;;;43.90;;
78338;SDS011;67614;47.406;18.784;2023-02-15T00:57:16;49.80;;;43.77;;
78338;SDS011;67614;47.406;18.784;2023-02-15T00:57:47;47.27;;;42.03;;
78338;SDS011;67614;47.406;18.784;2023-02-15T00:58:17;49.53;;;43.67;;
78338;SDS011;67614;47.406;18.784;2023-02-15T00:58:48;47.70;;;42.67;;
78338;SDS011;67614;47.406;18.784;2023-02-15T00:59:18;46.27;;;41.70;;
78338;SDS011;67614;47.406;18.784;2023-02-15T00:59:49;47.07;;;42.33;;
78338;SDS011;67614;47.406;18.784;2023-02-15T01:00:19;48.53;;;43.27;;
78338;SDS011;67614;47.406;18.784;2023-02-15T01:00:50;48.37;;;43.43;;
78338;SDS011;67614;47.406;18.784;2023-02-15T01:01:21;49.53;;;44.70;;
78338;SDS011;67614;47.406;18.784;2023-02-15T01:01:53;49.60;;;44.53;;
78338;SDS011;67614;47.406;18.784;2023-02-15T01:02:23;47.60;;;43.00;;
78338;SDS011;67614;47.406;18.784;2023-02-15T01:02:54;47.80;;;43.23;;
78338;SDS011;67614;47.406;18.784;2023-02-15T01:03:24;47.27;;;42.60;;
78338;SDS011;67614;47.406;18.784;2023-02-15T01:03:55;46.90;;;42.20;;
78338;SDS011;67614;47.406;18.784;2023-02-15T01:04:25;45.87;;;41.20;;
78338;SDS011;67614;47.406;18.784;2023-02-15T01:04:56;46.83;;;42.03;;
78338;SDS011;67614;47.406;18.784;2023-02-15T01:05:26;48.17;;;43.43;;
78338;SDS011;67614;47.406;18.784;2023-02-15T01:05:57;49.00;;;44.03;;
78338;SDS011;67614;47.406;18.784;2023-02-15T01:06:27;49.13;;;44.50;;
78338;SDS011;67614;47.406;18.784;2023-02-15T01:06:58;48.53;;;43.50;;
78338;SDS011;67614;47.406;18.784;2023-02-15T01:07:28;51.50;;;45.30;;
78338;SDS011;67614;47.406;18.784;2023-02-15T01:07:59;51.50;;;45.13;;
78338;SDS011;67614;47.406;18.784;2023-02-15T01:08:30;48.67;;;43.40;;
78338;SDS011;67614;47.406;18.784;2023-02-15T01:09:01;48.67;;;43.40;;
78338;SDS011;67614;47.406;18.784;2023-02-15T01:09:31;48.50;;;42.97;;
78338;SDS011;67614;47.406;18.784;2023-02-15T01:10:02;47.83;;;42.97;;
78338;SDS011;67614;47.406;18.784;2023-02-15T01:10:33;47.80;;;42.70;;
78338;SDS011;67614;47.406;18.784;2023-02-15T01:11:15;48.30;;;43.00;;
78338;SDS011;67614;47.406;18.784;2023-02-15T01:11:51;48.07;;;42.93;;
78338;SDS011;67614;47.406;18.784;2023-02-15T01:12:22;48.97;;;43.60;;
78338;SDS011;67614;47.406;18.784;2023-02-15T01:12:52;46.60;;;41.80;;
78338;SDS011;67614;47.406;18.784;2023-02-15T01:13:24;47.33;;;42.63;;
78338;SDS011;67614;47.406;18.784;2023-02-15T01:13:55;50.20;;;44.60;;
78338;SDS011;67614;47.406;18.784;2023-02-15T01:14:27;48.73;;;43.40;;
78338;SDS011;67614;47.406;18.784;2023-02-15T01:14:57;48.57;;;42.93;;
78338;SDS011;67614;47.406;18.784;2023-02-15T01:15:28;48.53;;;43.20;;
78338;SDS011;67614;47.406;18.784;2023-02-15T01:15:58;46.83;;;42.37;;
78338;SDS011;67614;47.406;18.784;2023-02-15T01:16:29;48.80;;;43.90;;
78338;SDS011;67614;47.406;18.784;2023-02-15T01:16:59;51.23;;;45.53;;
78338;SDS011;67614;47.406;18.784;2023-02-15T01:17:30;52.43;;;46.63;;
78338;SDS011;67614;47.406;18.784;2023-02-15T01:18:01;52.63;;;47.13;;
78338;SDS011;67614;47.406;18.784;2023-02-15T01:18:32;53.47;;;47.93;;
78338;SDS011;67614;47.406;18.784;2023-02-15T01:19:03;51.63;;;46.50;;
78338;SDS011;67614;47.406;18.784;2023-02-15T01:19:33;51.13;;;46.20;;
78338;SDS011;67614;47.406;18.784;2023-02-15T01:20:04;51.13;;;46.40;;
78338;SDS011;67614;47.406;18.784;2023-02-15T01:20:38;50.23;;;45.80;;
78338;SDS011;67614;47.406;18.784;2023-02-15T01:21:11;49.83;;;45.87;;
78338;SDS011;67614;47.406;18.784;2023-02-15T01:21:43;50.03;;;45.67;;
78338;SDS011;67614;47.406;18.784;2023-02-15T01:22:14;52.23;;;46.33;;
78338;SDS011;67614;47.406;18.784;2023-02-15T01:22:44;53.20;;;46.87;;
78338;SDS011;67614;47.406;18.784;2023-02-15T01:23:15;50.87;;;45.17;;
78338;SDS011;67614;47.406;18.784;2023-02-15T01:23:45;50.17;;;44.93;;
78338;SDS011;67614;47.406;18.784;2023-02-15T01:24:16;52.40;;;46.87;;
78338;SDS011;67614;47.406;18.784;2023-02-15T01:24:48;52.00;;;46.33;;
78338;SDS011;67614;47.406;18.784;2023-02-15T01:25:20;49.90;;;44.77;;
78338;SDS011;67614;47.406;18.784;2023-02-15T01:25:52;48.30;;;43.37;;
78338;SDS011;67614;47.406;18.784;2023-02-15T01:26:22;48.43;;;43.47;;
78338;SDS011;67614;47.406;18.784;2023-02-15T01:26:53;48.07;;;43.53;;
78338;SDS011;67614;47.406;18.784;2023-02-15T01:27:23;48.97;;;43.70;;
78338;SDS011;67614;47.406;18.784;2023-02-15T01:27:53;49.53;;;44.07;;
78338;SDS011;67614;47.406;18.784;2023-02-15T01:28:24;47.67;;;43.13;;
78338;SDS011;67614;47.406;18.784;2023-02-15T01:28:54;48.80;;;43.87;;
78338;SDS011;67614;47.406;18.784;2023-02-15T01:30:01;49.03;;;44.17;;
78338;SDS011;67614;47.406;18.784;2023-02-15T01:30:32;50.57;;;45.13;;
78338;SDS011;67614;47.406;18.784;2023-02-15T01:31:10;51.27;;;45.47;;
78338;SDS011;67614;47.406;18.784;2023-02-15T01:31:45;51.27;;;45.43;;
78338;SDS011;67614;47.406;18.784;2023-02-15T01:32:15;49.03;;;44.00;;
78338;SDS011;67614;47.406;18.784;2023-02-15T01:32:46;47.73;;;43.17;;
78338;SDS011;67614;47.406;18.784;2023-02-15T01:33:16;49.17;;;44.00;;
78338;SDS011;67614;47.406;18.784;2023-02-15T01:33:47;47.53;;;42.90;;
78338;SDS011;67614;47.406;18.784;2023-02-15T01:34:18;48.97;;;44.27;;
78338;SDS011;67614;47.406;18.784;2023-02-15T01:34:49;50.23;;;45.13;;
78338;SDS011;67614;47.406;18.784;2023-02-15T01:35:19;47.77;;;43.23;;
78338;SDS011;67614;47.406;18.784;2023-02-15T01:35:55;47.07;;;42.23;;
78338;SDS011;67614;47.406;18.784;2023-02-15T01:36:27;48.33;;;43.33;;
78338;SDS011;67614;47.406;18.784;2023-02-15T01:36:57;48.53;;;43.90;;
78338;SDS011;67614;47.406;18.784;2023-02-15T01:37:29;47.53;;;43.37;;
78338;SDS011;67614;47.406;18.784;2023-02-15T01:38:01;50.33;;;45.33;;
78338;SDS011;67614;47.406;18.784;2023-02-15T01:38:31;52.73;;;46.77;;
78338;SDS011;67614;47.406;18.784;2023-02-15T01:39:02;53.97;;;46.93;;
78338;SDS011;67614;47.406;18.784;2023-02-15T01:39:33;52.57;;;45.93;;
78338;SDS011;67614;47.406;18.784;2023-02-15T01:40:04;51.63;;;45.83;;
78338;SDS011;67614;47.406;18.784;2023-02-15T01:40:37;51.43;;;45.87;;
78338;SDS011;67614;47.406;18.784;2023-02-15T01:41:09;50.53;;;45.20;;
78338;SDS011;67614;47.406;18.784;2023-02-15T01:41:56;50.30;;;45.03;;
78338;SDS011;67614;47.406;18.784;2023-02-15T01:42:27;49.53;;;44.30;;
78338;SDS011;67614;47.406;18.784;2023-02-15T01:42:58;48.87;;;44.10;;
78338;SDS011;67614;47.406;18.784;2023-02-15T01:43:41;49.10;;;44.17;;
78338;SDS011;67614;47.406;18.784;2023-02-15T01:45:31;49.17;;;44.33;;
78338;SDS011;67614;47.406;18.784;2023-02-15T01:46:02;49.37;;;43.97;;
78338;SDS011;67614;47.406;18.784;2023-02-15T01:46:37;49.63;;;44.67;;
78338;SDS011;67614;47.406;18.784;2023-02-15T01:47:11;49.57;;;44.67;;
78338;SDS011;67614;47.406;18.784;2023-02-15T01:47:45;48.53;;;43.87;;
78338;SDS011;67614;47.406;18.784;2023-02-15T01:48:21;48.13;;;43.83;;
78338;SDS011;67614;47.406;18.784;2023-02-15T01:49:02;46.57;;;42.80;;
78338;SDS011;67614;47.406;18.784;2023-02-15T01:49:38;47.63;;;43.13;;
78338;SDS011;67614;47.406;18.784;2023-02-15T01:50:12;48.10;;;43.73;;
78338;SDS011;67614;47.406;18.784;2023-02-15T01:50:46;46.20;;;42.23;;
78338;SDS011;67614;47.406;18.784;2023-02-15T01:51:24;49.40;;;44.70;;
78338;SDS011;67614;47.406;18.784;2023-02-15T01:51:58;52.67;;;46.30;;
78338;SDS011;67614;47.406;18.784;2023-02-15T01:52:28;52.40;;;46.33;;
78338;SDS011;67614;47.406;18.784;2023-02-15T01:53:59;49.33;;;44.20;;
78338;SDS011;67614;47.406;18.784;2023-02-15T01:54:33;47.80;;;43.27;;
78338;SDS011;67614;47.406;18.784;2023-02-15T01:55:06;48.57;;;43.47;;
78338;SDS011;67614;47.406;18.784;2023-02-15T01:55:45;50.43;;;45.40;;
78338;SDS011;67614;47.406;18.784;2023-02-15T01:56:22;49.10;;;44.73;;
78338;SDS011;67614;47.406;18.784;2023-02-15T01:56:58;51.47;;;45.70;;
78338;SDS011;67614;47.406;18.784;2023-02-15T01:57:51;50.87;;;45.70;;
78338;SDS011;67614;47.406;18.784;2023-02-15T01:58:22;50.57;;;45.23;;
78338;SDS011;67614;47.406;18.784;2023-02-15T01:58:55;53.07;;;46.30;;
78338;SDS011;67614;47.406;18.784;2023-02-15T01:59:31;52.73;;;46.03;;
78338;SDS011;67614;47.406;18.784;2023-02-15T02:00:03;52.43;;;46.03;;
78338;SDS011;67614;47.406;18.784;2023-02-15T02:00:35;51.23;;;45.40;;
78338;SDS011;67614;47.406;18.784;2023-02-15T02:01:07;51.37;;;45.30;;
78338;SDS011;67614;47.406;18.784;2023-02-15T02:01:38;52.30;;;46.47;;
78338;SDS011;67614;47.406;18.784;2023-02-15T02:02:09;50.67;;;44.90;;
78338;SDS011;67614;47.406;18.784;2023-02-15T02:02:42;49.87;;;44.63;;
78338;SDS011;67614;47.406;18.784;2023-02-15T02:03:15;50.27;;;45.50;;
78338;SDS011;67614;47.406;18.784;2023-02-15T02:04:17;50.20;;;45.20;;
78338;SDS011;67614;47.406;18.784;2023-02-15T02:04:59;53.03;;;47.03;;
78338;SDS011;67614;47.406;18.784;2023-02-15T02:05:36;51.33;;;45.83;;
78338;SDS011;67614;47.406;18.784;2023-02-15T02:06:08;53.03;;;47.30;;
78338;SDS011;67614;47.406;18.784;2023-02-15T02:06:38;50.67;;;45.37;;
78338;SDS011;67614;47.406;18.784;2023-02-15T02:07:09;52.23;;;46.33;;
78338;SDS011;67614;47.406;18.784;2023-02-15T02:07:43;52.47;;;46.67;;
78338;SDS011;67614;47.406;18.784;2023-02-15T02:08:15;51.23;;;46.23;;
78338;SDS011;67614;47.406;18.784;2023-02-15T02:08:46;51.97;;;46.17;;
78338;SDS011;67614;47.406;18.784;2023-02-15T02:09:17;51.37;;;45.83;;
78338;SDS011;67614;47.406;18.784;2023-02-15T02:09:48;50.90;;;45.70;;
78338;SDS011;67614;47.406;18.784;2023-02-15T02:10:20;50.53;;;45.20;;
78338;SDS011;67614;47.406;18.784;2023-02-15T02:10:53;51.33;;;45.87;;
78338;SDS011;67614;47.406;18.784;2023-02-15T02:11:23;51.80;;;46.17;;
78338;SDS011;67614;47.406;18.784;2023-02-15T02:11:54;53.57;;;47.30;;
78338;SDS011;67614;47.406;18.784;2023-02-15T02:12:24;51.40;;;45.77;;
78338;SDS011;67614;47.406;18.784;2023-02-15T02:12:57;50.73;;;46.00;;
78338;SDS011;67614;47.406;18.784;2023-02-15T02:13:29;48.43;;;44.13;;
78338;SDS011;67614;47.406;18.784;2023-02-15T02:13:59;51.13;;;45.87;;
78338;SDS011;67614;47.406;18.784;2023-02-15T02:14:30;50.63;;;45.47;;
78338;SDS011;67614;47.406;18.784;2023-02-15T02:15:00;50.23;;;45.30;;
78338;SDS011;67614;47.406;18.784;2023-02-15T02:19:08;50.60;;;45.10;;
78338;SDS011;67614;47.406;18.784;2023-02-15T02:20:15;52.10;;;46.23;;
78338;SDS011;67614;47.406;18.784;2023-02-15T02:22:25;49.63;;;45.27;;
78338;SDS011;67614;47.406;18.784;2023-02-15T02:23:25;49.90;;;45.07;;
78338;SDS011;67614;47.406;18.784;2023-02-15T02:26:32;53.67;;;47.53;;
78338;SDS011;67614;47.406;18.784;2023-02-15T02:27:19;55.77;;;49.37;;
78338;SDS011;67614;47.406;18.784;2023-02-15T02:34:30;50.57;;;45.03;;
78338;SDS011;67614;47.406;18.784;2023-02-15T02:36:58;50.73;;;45.70;;
78338;SDS011;67614;47.406;18.784;2023-02-15T02:42:44;53.17;;;47.00;;
78338;SDS011;67614;47.406;18.784;2023-02-15T02:43:22;52.47;;;46.50;;
78338;SDS011;67614;47.406;18.784;2023-02-15T02:44:48;51.37;;;46.00;;
78338;SDS011;67614;47.406;18.784;2023-02-15T02:45:28;50.90;;;45.83;;
78338;SDS011;67614;47.406;18.784;2023-02-15T02:46:10;50.90;;;45.07;;
78338;SDS011;67614;47.406;18.784;2023-02-15T02:47:10;51.27;;;45.33;;
78338;SDS011;67614;47.406;18.784;2023-02-15T02:48:35;47.37;;;42.93;;
78338;SDS011;67614;47.406;18.784;2023-02-15T02:49:06;49.17;;;44.30;;
78338;SDS011;67614;47.406;18.784;2023-02-15T02:49:38;49.47;;;44.20;;
78338;SDS011;67614;47.406;18.784;2023-02-15T02:50:14;51.00;;;45.57;;
78338;SDS011;67614;47.406;18.784;2023-02-15T02:50:47;52.37;;;46.57;;
78338;SDS011;67614;47.406;18.784;2023-02-15T02:51:18;50.07;;;44.63;;
78338;SDS011;67614;47.406;18.784;2023-02-15T02:51:57;52.70;;;46.50;;
78338;SDS011;67614;47.406;18.784;2023-02-15T02:52:46;52.97;;;46.77;;
78338;SDS011;67614;47.406;18.784;2023-02-15T02:53:18;51.73;;;45.67;;
78338;SDS011;67614;47.406;18.784;2023-02-15T02:53:52;50.63;;;44.87;;
78338;SDS011;67614;47.406;18.784;2023-02-15T02:54:27;54.70;;;47.33;;
78338;SDS011;67614;47.406;18.784;2023-02-15T02:54:58;55.03;;;47.33;;
78338;SDS011;67614;47.406;18.784;2023-02-15T02:55:37;54.20;;;47.23;;
78338;SDS011;67614;47.406;18.784;2023-02-15T02:56:18;50.50;;;45.13;;
78338;SDS011;67614;47.406;18.784;2023-02-15T02:56:53;49.60;;;43.93;;
78338;SDS011;67614;47.406;18.784;2023-02-15T02:57:28;52.07;;;45.67;;
78338;SDS011;67614;47.406;18.784;2023-02-15T02:58:02;52.33;;;46.27;;
78338;SDS011;67614;47.406;18.784;2023-02-15T02:58:39;48.10;;;42.97;;
78338;SDS011;67614;47.406;18.784;2023-02-15T02:59:24;49.83;;;44.00;;
78338;SDS011;67614;47.406;18.784;2023-02-15T03:00:04;50.07;;;44.87;;
78338;SDS011;67614;47.406;18.784;2023-02-15T03:01:52;50.73;;;45.00;;
78338;SDS011;67614;47.406;18.784;2023-02-15T03:02:29;51.97;;;45.63;;
78338;SDS011;67614;47.406;18.784;2023-02-15T03:03:06;52.00;;;46.23;;
78338;SDS011;67614;47.406;18.784;2023-02-15T03:03:41;51.87;;;46.27;;
78338;SDS011;67614;47.406;18.784;2023-02-15T03:04:17;52.17;;;45.87;;
78338;SDS011;67614;47.406;18.784;2023-02-15T03:04:54;53.10;;;45.93;;
78338;SDS011;67614;47.406;18.784;2023-02-15T03:05:34;51.33;;;45.17;;
78338;SDS011;67614;47.406;18.784;2023-02-15T03:06:11;53.20;;;47.10;;
78338;SDS011;67614;47.406;18.784;2023-02-15T03:06:56;51.10;;;45.50;;
78338;SDS011;67614;47.406;18.784;2023-02-15T03:07:30;51.03;;;44.90;;
78338;SDS011;67614;47.406;18.784;2023-02-15T03:08:03;51.70;;;46.20;;
78338;SDS011;67614;47.406;18.784;2023-02-15T03:08:37;50.90;;;45.60;;
78338;SDS011;67614;47.406;18.784;2023-02-15T03:09:14;51.37;;;45.73;;
78338;SDS011;67614;47.406;18.784;2023-02-15T03:09:50;52.73;;;46.80;;
78338;SDS011;67614;47.406;18.784;2023-02-15T03:10:22;50.23;;;44.60;;
78338;SDS011;67614;47.406;18.784;2023-02-15T03:10:54;51.00;;;46.03;;
78338;SDS011;67614;47.406;18.784;2023-02-15T03:11:28;52.53;;;46.80;;
78338;SDS011;67614;47.406;18.784;2023-02-15T03:12:00;53.23;;;47.10;;
78338;SDS011;67614;47.406;18.784;2023-02-15T03:12:33;49.87;;;44.63;;
78338;SDS011;67614;47.406;18.784;2023-02-15T03:13:06;50.13;;;44.87;;
78338;SDS011;67614;47.406;18.784;2023-02-15T03:13:37;48.90;;;43.93;;
78338;SDS011;67614;47.406;18.784;2023-02-15T03:14:10;49.10;;;44.40;;
78338;SDS011;67614;47.406;18.784;2023-02-15T03:14:43;49.07;;;44.67;;
78338;SDS011;67614;47.406;18.784;2023-02-15T03:15:17;48.20;;;43.83;;
78338;SDS011;67614;47.406;18.784;2023-02-15T03:15:50;47.93;;;43.30;;
78338;SDS011;67614;47.406;18.784;2023-02-15T03:16:41;48.83;;;44.60;;
78338;SDS011;67614;47.406;18.784;2023-02-15T03:17:14;51.73;;;46.40;;
78338;SDS011;67614;47.406;18.784;2023-02-15T03:17:48;52.43;;;46.90;;
78338;SDS011;67614;47.406;18.784;2023-02-15T03:18:23;52.97;;;47.03;;
78338;SDS011;67614;47.406;18.784;2023-02-15T03:19:36;50.43;;;45.10;;
78338;SDS011;67614;47.406;18.784;2023-02-15T03:20:11;52.23;;;46.37;;
78338;SDS011;67614;47.406;18.784;2023-02-15T03:20:45;50.27;;;45.23;;
78338;SDS011;67614;47.406;18.784;2023-02-15T03:21:17;49.57;;;44.90;;
78338;SDS011;67614;47.406;18.784;2023-02-15T03:21:54;48.77;;;43.90;;
78338;SDS011;67614;47.406;18.784;2023-02-15T03:22:41;49.27;;;43.90;;
78338;SDS011;67614;47.406;18.784;2023-02-15T03:23:17;49.73;;;44.83;;
78338;SDS011;67614;47.406;18.784;2023-02-15T03:23:55;48.70;;;44.00;;
78338;SDS011;67614;47.406;18.784;2023-02-15T03:24:40;51.93;;;45.87;;
78338;SDS011;67614;47.406;18.784;2023-02-15T03:25:48;53.13;;;46.90;;
78338;SDS011;67614;47.406;18.784;2023-02-15T03:26:22;51.73;;;46.20;;
78338;SDS011;67614;47.406;18.784;2023-02-15T03:26:55;49.83;;;44.37;;
78338;SDS011;67614;47.406;18.784;2023-02-15T03:27:27;48.80;;;43.77;;
78338;SDS011;67614;47.406;18.784;2023-02-15T03:28:03;50.57;;;45.30;;
78338;SDS011;67614;47.406;18.784;2023-02-15T03:28:43;50.80;;;45.47;;
78338;SDS011;67614;47.406;18.784;2023-02-15T03:29:17;49.07;;;44.30;;
78338;SDS011;67614;47.406;18.784;2023-02-15T03:29:50;49.90;;;44.80;;
78338;SDS011;67614;47.406;18.784;2023-02-15T03:30:23;52.43;;;45.77;;
78338;SDS011;67614;47.406;18.784;2023-02-15T03:30:55;52.70;;;46.07;;
78338;SDS011;67614;47.406;18.784;2023-02-15T03:31:31;50.57;;;45.07;;
78338;SDS011;67614;47.406;18.784;2023-02-15T03:32:05;50.10;;;44.77;;
78338;SDS011;67614;47.406;18.784;2023-02-15T03:32:38;53.00;;;46.73;;
78338;SDS011;67614;47.406;18.784;2023-02-15T03:33:09;53.33;;;46.80;;
78338;SDS011;67614;47.406;18.784;2023-02-15T03:33:49;52.47;;;46.87;;
78338;SDS011;67614;47.406;18.784;2023-02-15T03:34:26;51.90;;;45.93;;
78338;SDS011;67614;47.406;18.784;2023-02-15T03:34:57;51.23;;;45.73;;
78338;SDS011;67614;47.406;18.784;2023-02-15T03:35:36;51.17;;;46.10;;
78338;SDS011;67614;47.406;18.784;2023-02-15T03:36:19;48.73;;;44.37;;
78338;SDS011;67614;47.406;18.784;2023-02-15T03:36:58;51.13;;;46.00;;
78338;SDS011;67614;47.406;18.784;2023-02-15T03:37:41;51.10;;;45.50;;
78338;SDS011;67614;47.406;18.784;2023-02-15T03:38:20;49.27;;;44.30;;
78338;SDS011;67614;47.406;18.784;2023-02-15T03:39:47;49.27;;;43.87;;
78338;SDS011;67614;47.406;18.784;2023-02-15T03:41:11;48.83;;;43.53;;
78338;SDS011;67614;47.406;18.784;2023-02-15T03:43:02;53.43;;;47.47;;